sensor_id;sensor_type;location;lat;lon;timestamp;pressure;altitude;pressure_sealevel;temperature;humidity
40205;BME280;26963;42.666;23.366;2023-04-03T00:00:22;94344.81;;;10.07;49.60
40205;BME280;26963;42.666;23.366;2023-04-03T00:02:47;94335.69;;;9.85;49.78
40205;BME280;26963;42.666;23.366;2023-04-03T00:05:13;94348.81;;;9.95;49.80
40205;BME280;26963;42.666;23.366;2023-04-03T00:07:38;94335.13;;;10.11;49.38
40205;BME280;26963;42.666;23.366;2023-04-03T00:10:05;94315.91;;;10.09;48.92
40205;BME280;26963;42.666;23.366;2023-04-03T00:12:30;94304.78;;;10.16;48.66
40205;BME280;26963;42.666;23.366;2023-04-03T00:14:56;94226.88;;;9.54;49.23
40205;BME280;26963;42.666;23.366;2023-04-03T00:17:21;94288.78;;;9.79;49.49
40205;BME280;26963;42.666;23.366;2023-04-03T00:19:47;94319.00;;;9.79;50.12
40205;BME280;26963;42.666;23.366;2023-04-03T00:22:12;94316.78;;;9.82;50.29
40205;BME280;26963;42.666;23.366;2023-04-03T00:24:38;94319.06;;;9.88;49.84
40205;BME280;26963;42.666;23.366;2023-04-03T00:27:03;94306.84;;;9.96;49.97
40205;BME280;26963;42.666;23.366;2023-04-03T00:29:29;94306.44;;;10.03;49.62
40205;BME280;26963;42.666;23.366;2023-04-03T00:31:54;94286.88;;;9.93;49.46
40205;BME280;26963;42.666;23.366;2023-04-03T00:34:20;94294.66;;;10.04;49.72
40205;BME280;26963;42.666;23.366;2023-04-03T00:36:45;94277.91;;;9.89;49.20
40205;BME280;26963;42.666;23.366;2023-04-03T00:39:11;94318.09;;;10.07;49.97
40205;BME280;26963;42.666;23.366;2023-04-03T00:41:36;94323.06;;;10.00;50.22
40205;BME280;26963;42.666;23.366;2023-04-03T00:44:19;94332.63;;;10.15;49.94
40205;BME280;26963;42.666;23.366;2023-04-03T00:46:45;94321.13;;;10.14;49.89
40205;BME280;26963;42.666;23.366;2023-04-03T00:49:10;94318.09;;;10.07;49.73
40205;BME280;26963;42.666;23.366;2023-04-03T00:51:36;94311.53;;;10.13;49.62
40205;BME280;26963;42.666;23.366;2023-04-03T00:54:04;94330.72;;;10.15;50.00
40205;BME280;26963;42.666;23.366;2023-04-03T00:56:31;94330.72;;;9.92;50.44
40205;BME280;26963;42.666;23.366;2023-04-03T00:59:04;94290.56;;;9.47;51.42
40205;BME280;26963;42.666;23.366;2023-04-03T01:01:31;94320.06;;;9.42;51.82
40205;BME280;26963;42.666;23.366;2023-04-03T01:04:01;94338.41;;;9.57;52.40
40205;BME280;26963;42.666;23.366;2023-04-03T01:06:30;94302.84;;;9.48;51.62
40205;BME280;26963;42.666;23.366;2023-04-03T01:08:59;94333.03;;;9.71;51.17
40205;BME280;26963;42.666;23.366;2023-04-03T01:11:25;94335.78;;;9.80;50.82
40205;BME280;26963;42.666;23.366;2023-04-03T01:13:51;94343.69;;;9.85;51.24
40205;BME280;26963;42.666;23.366;2023-04-03T01:16:17;94327.66;;;9.85;50.88
40205;BME280;26963;42.666;23.366;2023-04-03T01:18:43;94308.63;;;9.78;50.70
40205;BME280;26963;42.666;23.366;2023-04-03T01:26:45;94307.44;;;9.93;50.07
40205;BME280;26963;42.666;23.366;2023-04-03T01:29:10;94321.50;;;9.99;50.23
40205;BME280;26963;42.666;23.366;2023-04-03T01:32:15;94335.13;;;10.11;50.19
40205;BME280;26963;42.666;23.366;2023-04-03T01:34:40;94333.53;;;10.10;50.05
40205;BME280;26963;42.666;23.366;2023-04-03T01:37:06;94333.03;;;10.08;50.01
40205;BME280;26963;42.666;23.366;2023-04-03T01:39:31;94318.94;;;9.93;50.26
40205;BME280;26963;42.666;23.366;2023-04-03T01:42:00;94317.97;;;9.89;49.90
40205;BME280;26963;42.666;23.366;2023-04-03T01:44:26;94324.41;;;9.88;49.83
40205;BME280;26963;42.666;23.366;2023-04-03T01:46:51;94257.75;;;9.46;50.06
40205;BME280;26963;42.666;23.366;2023-04-03T01:49:17;94329.25;;;9.86;50.21
40205;BME280;26963;42.666;23.366;2023-04-03T01:51:43;94326.94;;;9.71;50.50
40205;BME280;26963;42.666;23.366;2023-04-03T01:54:08;94315.38;;;9.61;50.55
40205;BME280;26963;42.666;23.366;2023-04-03T01:56:34;94299.41;;;9.34;50.77
40205;BME280;26963;42.666;23.366;2023-04-03T01:58:59;94337.34;;;9.58;50.82
40205;BME280;26963;42.666;23.366;2023-04-03T02:01:25;94350.97;;;9.71;50.78
40205;BME280;26963;42.666;23.366;2023-04-03T02:03:51;94339.31;;;9.67;50.36
40205;BME280;26963;42.666;23.366;2023-04-03T02:06:16;94333.06;;;9.57;50.22
40205;BME280;26963;42.666;23.366;2023-04-03T02:08:42;94346.72;;;9.70;50.37
40205;BME280;26963;42.666;23.366;2023-04-03T02:11:07;94268.81;;;9.17;50.42
40205;BME280;26963;42.666;23.366;2023-04-03T02:13:33;94349.94;;;9.44;50.72
40205;BME280;26963;42.666;23.366;2023-04-03T02:15:58;94330.75;;;9.28;50.93
40205;BME280;26963;42.666;23.366;2023-04-03T02:18:24;94351.69;;;9.35;51.04
40205;BME280;26963;42.666;23.366;2023-04-03T02:20:50;94325.94;;;9.16;51.00
40205;BME280;26963;42.666;23.366;2023-04-03T02:23:16;94288.06;;;8.86;51.15
40205;BME280;26963;42.666;23.366;2023-04-03T02:25:41;94343.03;;;9.15;51.31
40205;BME280;26963;42.666;23.366;2023-04-03T02:28:07;94302.03;;;8.83;51.76
40205;BME280;26963;42.666;23.366;2023-04-03T02:30:32;94324.25;;;8.92;51.56
40205;BME280;26963;42.666;23.366;2023-04-03T02:32:58;94275.03;;;8.71;51.90
40205;BME280;26963;42.666;23.366;2023-04-03T02:35:23;94267.13;;;8.65;51.45
40205;BME280;26963;42.666;23.366;2023-04-03T02:37:49;94228.38;;;8.40;51.69
40205;BME280;26963;42.666;23.366;2023-04-03T02:40:15;94309.13;;;9.02;51.35
40205;BME280;26963;42.666;23.366;2023-04-03T02:42:41;94320.19;;;9.09;51.76
40205;BME280;26963;42.666;23.366;2023-04-03T02:45:06;94326.81;;;9.11;51.42
40205;BME280;26963;42.666;23.366;2023-04-03T02:47:32;94280.19;;;8.81;51.72
40205;BME280;26963;42.666;23.366;2023-04-03T02:49:58;94326.72;;;9.17;51.32
40205;BME280;26963;42.666;23.366;2023-04-03T02:52:23;94257.84;;;8.77;51.53
40205;BME280;26963;42.666;23.366;2023-04-03T02:54:49;94311.50;;;9.17;51.63
40205;BME280;26963;42.666;23.366;2023-04-03T02:57:14;94314.97;;;9.04;51.62
40205;BME280;26963;42.666;23.366;2023-04-03T02:59:40;94315.16;;;9.21;51.19
40205;BME280;26963;42.666;23.366;2023-04-03T03:02:07;94262.59;;;8.94;50.75
40205;BME280;26963;42.666;23.366;2023-04-03T03:04:33;94285.91;;;9.16;51.07
40205;BME280;26963;42.666;23.366;2023-04-03T03:06:58;94318.69;;;9.30;51.39
40205;BME280;26963;42.666;23.366;2023-04-03T03:09:24;94236.31;;;8.87;51.08
40205;BME280;26963;42.666;23.366;2023-04-03T03:11:50;94245.69;;;8.98;50.44
40205;BME280;26963;42.666;23.366;2023-04-03T03:14:16;94309.59;;;9.32;50.43
40205;BME280;26963;42.666;23.366;2023-04-03T03:16:41;94229.00;;;8.79;51.31
40205;BME280;26963;42.666;23.366;2023-04-03T03:19:07;94278.19;;;9.14;50.93
40205;BME280;26963;42.666;23.366;2023-04-03T03:21:33;94307.63;;;9.23;50.40
40205;BME280;26963;42.666;23.366;2023-04-03T03:23:58;94248.06;;;8.86;50.27
40205;BME280;26963;42.666;23.366;2023-04-03T03:26:24;94294.13;;;9.06;51.12
40205;BME280;26963;42.666;23.366;2023-04-03T03:28:50;94258.72;;;8.86;50.70
40205;BME280;26963;42.666;23.366;2023-04-03T03:31:15;94234.22;;;8.70;51.33
40205;BME280;26963;42.666;23.366;2023-04-03T03:33:41;94297.75;;;9.10;51.74
40205;BME280;26963;42.666;23.366;2023-04-03T03:36:07;94248.78;;;8.78;51.61
40205;BME280;26963;42.666;23.366;2023-04-03T03:38:32;94311.09;;;9.10;51.52
40205;BME280;26963;42.666;23.366;2023-04-03T03:40:58;94275.81;;;8.85;51.30
40205;BME280;26963;42.666;23.366;2023-04-03T03:43:24;94300.13;;;8.97;51.61
40205;BME280;26963;42.666;23.366;2023-04-03T03:45:51;94310.69;;;9.03;51.89
40205;BME280;26963;42.666;23.366;2023-04-03T03:48:18;94091.91;;;7.55;51.93
40205;BME280;26963;42.666;23.366;2023-04-03T03:50:44;94298.34;;;8.79;52.65
40205;BME280;26963;42.666;23.366;2023-04-03T03:53:10;94292.91;;;8.70;52.07
40205;BME280;26963;42.666;23.366;2023-04-03T03:55:36;94294.97;;;8.59;52.23
40205;BME280;26963;42.666;23.366;2023-04-03T03:58:01;94302.13;;;8.64;52.25
40205;BME280;26963;42.666;23.366;2023-04-03T04:00:30;94272.25;;;8.48;52.01
40205;BME280;26963;42.666;23.366;2023-04-03T04:02:56;94310.22;;;8.73;51.97
40205;BME280;26963;42.666;23.366;2023-04-03T04:05:22;94307.03;;;8.71;52.11
40205;BME280;26963;42.666;23.366;2023-04-03T04:07:48;94310.28;;;8.68;52.06
40205;BME280;26963;42.666;23.366;2023-04-03T04:10:13;94293.41;;;8.58;52.16
40205;BME280;26963;42.666;23.366;2023-04-03T04:12:39;94230.75;;;8.28;53.14
40205;BME280;26963;42.666;23.366;2023-04-03T04:15:05;94303.78;;;8.74;52.67
40205;BME280;26963;42.666;23.366;2023-04-03T04:17:31;94317.91;;;8.74;52.50
40205;BME280;26963;42.666;23.366;2023-04-03T04:19:56;94234.00;;;8.25;52.29
40205;BME280;26963;42.666;23.366;2023-04-03T04:22:25;94298.84;;;8.81;52.21
40205;BME280;26963;42.666;23.366;2023-04-03T04:24:51;94314.19;;;8.89;51.91
40205;BME280;26963;42.666;23.366;2023-04-03T04:27:16;94308.03;;;8.89;52.12
40205;BME280;26963;42.666;23.366;2023-04-03T04:29:42;94304.78;;;8.92;52.36
40205;BME280;26963;42.666;23.366;2023-04-03T04:32:07;94311.59;;;8.98;52.13
40205;BME280;26963;42.666;23.366;2023-04-03T04:34:34;94321.69;;;9.15;51.95
40205;BME280;26963;42.666;23.366;2023-04-03T04:37:00;94322.06;;;9.22;51.92
40205;BME280;26963;42.666;23.366;2023-04-03T04:39:25;94321.06;;;9.18;50.73
40205;BME280;26963;42.666;23.366;2023-04-03T04:41:51;94285.91;;;8.88;50.57
40205;BME280;26963;42.666;23.366;2023-04-03T04:44:17;94316.75;;;9.08;51.04
40205;BME280;26963;42.666;23.366;2023-04-03T04:46:42;94320.69;;;9.11;51.19
40205;BME280;26963;42.666;23.366;2023-04-03T04:49:08;94297.16;;;8.99;51.45
40205;BME280;26963;42.666;23.366;2023-04-03T04:51:33;94285.00;;;8.93;50.94
40205;BME280;26963;42.666;23.366;2023-04-03T04:53:59;94346.19;;;9.31;51.06
40205;BME280;26963;42.666;23.366;2023-04-03T04:56:25;94333.72;;;9.26;51.63
40205;BME280;26963;42.666;23.366;2023-04-03T04:58:50;94271.28;;;8.86;52.08
40205;BME280;26963;42.666;23.366;2023-04-03T05:01:16;94320.28;;;9.18;51.63
40205;BME280;26963;42.666;23.366;2023-04-03T05:03:41;94324.25;;;9.20;51.45
40205;BME280;26963;42.666;23.366;2023-04-03T05:06:07;94233.56;;;8.64;51.15
40205;BME280;26963;42.666;23.366;2023-04-03T05:08:33;94358.41;;;9.46;51.17
40205;BME280;26963;42.666;23.366;2023-04-03T05:10:59;94372.28;;;9.48;50.66
40205;BME280;26963;42.666;23.366;2023-04-03T05:13:24;94328.97;;;9.23;50.60
40205;BME280;26963;42.666;23.366;2023-04-03T05:15:50;94377.78;;;9.66;50.63
40205;BME280;26963;42.666;23.366;2023-04-03T05:18:15;94357.94;;;9.58;50.38
40205;BME280;26963;42.666;23.366;2023-04-03T05:20:41;94331.72;;;9.46;50.33
40205;BME280;26963;42.666;23.366;2023-04-03T05:23:09;94363.50;;;9.70;50.28
40205;BME280;26963;42.666;23.366;2023-04-03T05:25:37;94330.69;;;9.70;49.83
40205;BME280;26963;42.666;23.366;2023-04-03T05:28:03;94352.59;;;9.94;49.73
40205;BME280;26963;42.666;23.366;2023-04-03T05:30:29;94365.59;;;10.10;49.73
40205;BME280;26963;42.666;23.366;2023-04-03T05:32:54;94351.16;;;10.11;49.54
40205;BME280;26963;42.666;23.366;2023-04-03T05:35:20;94319.41;;;9.95;49.78
40205;BME280;26963;42.666;23.366;2023-04-03T05:37:46;94291.34;;;10.07;50.21
40205;BME280;26963;42.666;23.366;2023-04-03T05:40:11;94300.75;;;10.27;50.02
40205;BME280;26963;42.666;23.366;2023-04-03T05:42:37;94355.16;;;10.68;49.87
40205;BME280;26963;42.666;23.366;2023-04-03T05:45:05;94330.72;;;10.60;50.04
40205;BME280;26963;42.666;23.366;2023-04-03T05:47:31;94340.41;;;10.79;49.71
40205;BME280;26963;42.666;23.366;2023-04-03T05:50:00;94351.50;;;10.95;49.06
40205;BME280;26963;42.666;23.366;2023-04-03T05:52:30;94346.97;;;11.04;48.49
40205;BME280;26963;42.666;23.366;2023-04-03T05:54:56;94274.69;;;10.55;48.32
40205;BME280;26963;42.666;23.366;2023-04-03T05:57:22;94325.09;;;11.02;48.17
40205;BME280;26963;42.666;23.366;2023-04-03T05:59:49;94327.91;;;10.97;48.29
40205;BME280;26963;42.666;23.366;2023-04-03T06:02:19;94319.50;;;10.81;48.23
40205;BME280;26963;42.666;23.366;2023-04-03T06:04:45;94335.81;;;11.02;48.73
40205;BME280;26963;42.666;23.366;2023-04-03T06:07:14;94334.13;;;11.15;48.20
40205;BME280;26963;42.666;23.366;2023-04-03T06:09:41;94331.75;;;11.14;47.71
40205;BME280;26963;42.666;23.366;2023-04-03T06:12:07;94326.06;;;11.06;47.96
40205;BME280;26963;42.666;23.366;2023-04-03T06:14:32;94319.13;;;10.74;48.43
40205;BME280;26963;42.666;23.366;2023-04-03T06:17:01;94311.66;;;10.53;49.44
40205;BME280;26963;42.666;23.366;2023-04-03T06:19:30;94309.59;;;10.50;49.42
40205;BME280;26963;42.666;23.366;2023-04-03T06:21:55;94312.22;;;10.41;49.83
40205;BME280;26963;42.666;23.366;2023-04-03T06:24:21;94264.88;;;9.96;50.36
40205;BME280;26963;42.666;23.366;2023-04-03T06:26:49;94333.53;;;10.33;50.36
40205;BME280;26963;42.666;23.366;2023-04-03T06:29:17;94340.97;;;10.36;51.05
40205;BME280;26963;42.666;23.366;2023-04-03T06:31:43;94325.50;;;10.33;50.58
40205;BME280;26963;42.666;23.366;2023-04-03T06:34:09;94348.56;;;10.74;49.89
40205;BME280;26963;42.666;23.366;2023-04-03T06:36:34;94346.59;;;10.88;48.86
40205;BME280;26963;42.666;23.366;2023-04-03T06:39:00;94358.84;;;11.21;48.32
40205;BME280;26963;42.666;23.366;2023-04-03T06:41:27;94296.63;;;11.15;47.61
40205;BME280;26963;42.666;23.366;2023-04-03T06:43:55;94349.81;;;11.48;47.67
40205;BME280;26963;42.666;23.366;2023-04-03T06:46:26;94353.22;;;11.40;47.94
40205;BME280;26963;42.666;23.366;2023-04-03T06:48:52;94328.25;;;11.13;47.94
40205;BME280;26963;42.666;23.366;2023-04-03T06:51:23;94349.91;;;11.25;48.34
40205;BME280;26963;42.666;23.366;2023-04-03T06:53:49;94314.81;;;10.96;48.56
40205;BME280;26963;42.666;23.366;2023-04-03T06:56:15;94358.94;;;11.07;48.50
40205;BME280;26963;42.666;23.366;2023-04-03T06:58:42;94351.97;;;10.88;49.13
40205;BME280;26963;42.666;23.366;2023-04-03T07:01:12;94361.75;;;11.02;49.23
40205;BME280;26963;42.666;23.366;2023-04-03T07:03:38;94325.53;;;10.96;48.71
40205;BME280;26963;42.666;23.366;2023-04-03T07:06:05;94345.78;;;11.19;48.73
40205;BME280;26963;42.666;23.366;2023-04-03T07:08:31;94353.53;;;11.38;47.97
40205;BME280;26963;42.666;23.366;2023-04-03T07:10:56;94294.31;;;11.31;47.91
40205;BME280;26963;42.666;23.366;2023-04-03T07:13:22;94336.00;;;11.90;47.51
40205;BME280;26963;42.666;23.366;2023-04-03T07:15:47;94300.03;;;11.82;47.12
40205;BME280;26963;42.666;23.366;2023-04-03T07:18:14;94332.38;;;12.30;46.46
40205;BME280;26963;42.666;23.366;2023-04-03T07:20:39;94304.44;;;12.39;45.93
40205;BME280;26963;42.666;23.366;2023-04-03T07:23:05;94340.84;;;12.67;45.25
40205;BME280;26963;42.666;23.366;2023-04-03T07:25:31;94302.78;;;12.65;45.48
40205;BME280;26963;42.666;23.366;2023-04-03T07:27:57;94318.13;;;13.03;45.06
40205;BME280;26963;42.666;23.366;2023-04-03T07:30:25;94301.84;;;13.08;44.41
40205;BME280;26963;42.666;23.366;2023-04-03T07:32:51;94251.91;;;13.07;44.07
40205;BME280;26963;42.666;23.366;2023-04-03T07:35:17;94320.09;;;13.83;43.85
40205;BME280;26963;42.666;23.366;2023-04-03T07:37:43;94331.91;;;13.91;42.97
40205;BME280;26963;42.666;23.366;2023-04-03T07:40:09;94241.91;;;13.67;42.28
40205;BME280;26963;42.666;23.366;2023-04-03T07:42:35;94319.69;;;13.94;41.99
40205;BME280;26963;42.666;23.366;2023-04-03T07:45:04;94318.78;;;13.68;42.85
40205;BME280;26963;42.666;23.366;2023-04-03T07:47:30;94274.38;;;13.32;43.39
40205;BME280;26963;42.666;23.366;2023-04-03T07:49:57;94267.41;;;13.10;44.50
40205;BME280;26963;42.666;23.366;2023-04-03T07:52:25;94286.47;;;13.17;44.43
40205;BME280;26963;42.666;23.366;2023-04-03T07:54:51;94311.09;;;13.19;44.77
40205;BME280;26963;42.666;23.366;2023-04-03T07:57:16;94251.81;;;12.65;45.57
40205;BME280;26963;42.666;23.366;2023-04-03T07:59:42;94307.38;;;13.03;45.47
40205;BME280;26963;42.666;23.366;2023-04-03T08:02:11;94313.88;;;13.02;45.41
40205;BME280;26963;42.666;23.366;2023-04-03T08:04:37;94295.03;;;12.72;45.77
40205;BME280;26963;42.666;23.366;2023-04-03T08:07:02;94309.72;;;12.75;45.61
40205;BME280;26963;42.666;23.366;2023-04-03T08:09:28;94296.66;;;12.55;46.29
40205;BME280;26963;42.666;23.366;2023-04-03T08:11:53;94313.03;;;12.63;46.03
40205;BME280;26963;42.666;23.366;2023-04-03T08:14:19;94302.50;;;12.57;46.14
40205;BME280;26963;42.666;23.366;2023-04-03T08:16:46;94293.16;;;12.64;45.81
40205;BME280;26963;42.666;23.366;2023-04-03T08:19:12;94295.66;;;12.69;45.89
40205;BME280;26963;42.666;23.366;2023-04-03T08:21:40;94303.53;;;12.74;45.95
40205;BME280;26963;42.666;23.366;2023-04-03T08:24:07;94295.31;;;12.79;45.94
40205;BME280;26963;42.666;23.366;2023-04-03T08:26:34;94280.44;;;12.91;45.65
40205;BME280;26963;42.666;23.366;2023-04-03T08:28:59;94230.81;;;12.67;45.04
40205;BME280;26963;42.666;23.366;2023-04-03T08:31:25;94293.69;;;13.26;44.83
40205;BME280;26963;42.666;23.366;2023-04-03T08:33:50;94287.78;;;13.41;44.52
40205;BME280;26963;42.666;23.366;2023-04-03T08:36:22;94297.00;;;13.61;44.18
40205;BME280;26963;42.666;23.366;2023-04-03T08:38:49;94238.13;;;13.47;43.70
40205;BME280;26963;42.666;23.366;2023-04-03T08:46:17;94143.31;;;13.17;43.31
40205;BME280;26963;42.666;23.366;2023-04-03T08:48:44;94163.53;;;13.44;43.24
40205;BME280;26963;42.666;23.366;2023-04-03T08:51:20;94278.59;;;14.27;42.98
40205;BME280;26963;42.666;23.366;2023-04-03T08:54:06;94245.75;;;14.33;42.63
40205;BME280;26963;42.666;23.366;2023-04-03T08:56:34;94266.13;;;14.56;42.25
40205;BME280;26963;42.666;23.366;2023-04-03T08:59:05;94225.50;;;14.48;42.13
40205;BME280;26963;42.666;23.366;2023-04-03T09:01:37;94252.03;;;14.71;41.80
40205;BME280;26963;42.666;23.366;2023-04-03T09:04:14;94129.34;;;14.12;41.82
40205;BME280;26963;42.666;23.366;2023-04-03T09:06:42;94253.50;;;14.93;41.77
40205;BME280;26963;42.666;23.366;2023-04-03T09:12:24;94237.22;;;15.02;41.57
40205;BME280;26963;42.666;23.366;2023-04-03T09:15:18;94018.69;;;13.64;41.50
40205;BME280;26963;42.666;23.366;2023-04-03T09:23:42;94227.13;;;14.99;41.41
40205;BME280;26963;42.666;23.366;2023-04-03T09:26:21;94232.19;;;15.00;40.97
40205;BME280;26963;42.666;23.366;2023-04-03T09:28:52;94112.66;;;14.31;40.68
40205;BME280;26963;42.666;23.366;2023-04-03T09:31:25;94192.78;;;14.96;40.40
40205;BME280;26963;42.666;23.366;2023-04-03T09:34:02;94215.44;;;15.20;40.31
40205;BME280;26963;42.666;23.366;2023-04-03T09:36:45;94214.72;;;15.35;40.34
40205;BME280;26963;42.666;23.366;2023-04-03T09:39:18;94211.47;;;15.42;40.16
40205;BME280;26963;42.666;23.366;2023-04-03T09:44:40;94212.38;;;15.46;40.60
40205;BME280;26963;42.666;23.366;2023-04-03T09:47:24;94205.19;;;15.38;40.82
40205;BME280;26963;42.666;23.366;2023-04-03T09:49:50;94142.63;;;14.79;40.91
40205;BME280;26963;42.666;23.366;2023-04-03T09:52:23;94197.50;;;14.99;40.94
40205;BME280;26963;42.666;23.366;2023-04-03T09:54:49;94172.38;;;14.70;41.61
40205;BME280;26963;42.666;23.366;2023-04-03T09:57:15;94197.84;;;14.73;42.26
40205;BME280;26963;42.666;23.366;2023-04-03T09:59:47;94174.91;;;14.54;42.08
40205;BME280;26963;42.666;23.366;2023-04-03T10:02:39;94184.91;;;14.54;42.18
40205;BME280;26963;42.666;23.366;2023-04-03T10:07:50;94204.38;;;14.26;42.78
40205;BME280;26963;42.666;23.366;2023-04-03T10:10:20;94113.44;;;13.61;42.93
40205;BME280;26963;42.666;23.366;2023-04-03T10:12:48;94190.16;;;13.92;43.21
40205;BME280;26963;42.666;23.366;2023-04-03T10:15:16;94194.50;;;13.84;43.92
40205;BME280;26963;42.666;23.366;2023-04-03T10:18:02;94197.53;;;13.82;43.61
40205;BME280;26963;42.666;23.366;2023-04-03T10:20:37;94196.41;;;13.83;43.49
40205;BME280;26963;42.666;23.366;2023-04-03T10:26:14;94192.19;;;13.95;42.98
40205;BME280;26963;42.666;23.366;2023-04-03T10:31:32;94121.56;;;13.73;42.37
40205;BME280;26963;42.666;23.366;2023-04-03T10:34:06;94118.88;;;13.85;41.88
40205;BME280;26963;42.666;23.366;2023-04-03T10:53:14;94162.22;;;14.42;41.03
40205;BME280;26963;42.666;23.366;2023-04-03T10:58:34;94102.75;;;13.85;41.42
40205;BME280;26963;42.666;23.366;2023-04-03T11:01:10;94105.41;;;13.73;41.46
40205;BME280;26963;42.666;23.366;2023-04-03T11:03:41;94163.97;;;14.01;42.59
40205;BME280;26963;42.666;23.366;2023-04-03T11:06:11;94147.34;;;13.86;42.89
40205;BME280;26963;42.666;23.366;2023-04-03T11:11:22;94168.78;;;13.62;44.53
40205;BME280;26963;42.666;23.366;2023-04-03T11:16:39;94167.97;;;13.19;46.51
40205;BME280;26963;42.666;23.366;2023-04-03T11:25:36;94169.06;;;13.18;49.26
40205;BME280;26963;42.666;23.366;2023-04-03T11:36:32;94073.44;;;12.32;53.02
40205;BME280;26963;42.666;23.366;2023-04-03T11:39:16;94126.88;;;12.76;54.10
40205;BME280;26963;42.666;23.366;2023-04-03T11:41:43;94116.59;;;12.78;53.76
40205;BME280;26963;42.666;23.366;2023-04-03T11:44:35;94168.22;;;13.05;54.62
40205;BME280;26963;42.666;23.366;2023-04-03T11:47:03;94173.59;;;13.05;55.86
40205;BME280;26963;42.666;23.366;2023-04-03T11:50:01;94178.09;;;12.92;55.73
40205;BME280;26963;42.666;23.366;2023-04-03T12:03:29;94171.59;;;12.33;61.09
40205;BME280;26963;42.666;23.366;2023-04-03T12:05:57;94182.78;;;12.35;59.62
40205;BME280;26963;42.666;23.366;2023-04-03T12:16:33;94183.69;;;11.83;63.57
40205;BME280;26963;42.666;23.366;2023-04-03T12:37:06;94156.16;;;11.56;64.50
40205;BME280;26963;42.666;23.366;2023-04-03T12:39:49;94139.09;;;11.52;65.11
40205;BME280;26963;42.666;23.366;2023-04-03T12:45:20;94114.25;;;11.25;65.75
40205;BME280;26963;42.666;23.366;2023-04-03T12:47:49;94117.09;;;11.38;65.85
40205;BME280;26963;42.666;23.366;2023-04-03T12:50:29;94128.25;;;11.49;66.70
40205;BME280;26963;42.666;23.366;2023-04-03T12:55:21;94108.13;;;11.34;69.40
40205;BME280;26963;42.666;23.366;2023-04-03T12:57:47;94069.22;;;11.10;67.62
40205;BME280;26963;42.666;23.366;2023-04-03T13:00:33;94131.88;;;11.44;69.35
40205;BME280;26963;42.666;23.366;2023-04-03T13:03:01;94131.25;;;11.47;66.87
40205;BME280;26963;42.666;23.366;2023-04-03T13:05:29;94116.91;;;11.34;66.28
40205;BME280;26963;42.666;23.366;2023-04-03T13:08:08;94099.13;;;11.12;67.27
40205;BME280;26963;42.666;23.366;2023-04-03T13:10:49;93985.28;;;10.27;67.96
40205;BME280;26963;42.666;23.366;2023-04-03T13:13:17;94130.00;;;11.18;69.10
40205;BME280;26963;42.666;23.366;2023-04-03T13:15:45;94126.06;;;11.16;68.78
40205;BME280;26963;42.666;23.366;2023-04-03T13:18:31;94015.34;;;10.33;68.59
40205;BME280;26963;42.666;23.366;2023-04-03T13:23:40;94104.34;;;10.91;69.95
40205;BME280;26963;42.666;23.366;2023-04-03T13:26:08;94107.19;;;10.95;71.00
40205;BME280;26963;42.666;23.366;2023-04-03T13:28:35;94083.53;;;10.88;69.93
40205;BME280;26963;42.666;23.366;2023-04-03T13:33:32;94098.50;;;10.98;71.56
40205;BME280;26963;42.666;23.366;2023-04-03T13:36:17;94099.44;;;11.02;71.61
40205;BME280;26963;42.666;23.366;2023-04-03T13:38:44;94090.00;;;10.96;70.42
40205;BME280;26963;42.666;23.366;2023-04-03T13:41:30;94119.59;;;10.90;70.68
40205;BME280;26963;42.666;23.366;2023-04-03T13:46:56;94108.59;;;10.83;73.50
40205;BME280;26963;42.666;23.366;2023-04-03T13:51:57;94089.03;;;10.74;72.03
40205;BME280;26963;42.666;23.366;2023-04-03T13:54:37;94111.56;;;10.90;70.92
40205;BME280;26963;42.666;23.366;2023-04-03T13:57:14;94086.69;;;10.72;71.51
40205;BME280;26963;42.666;23.366;2023-04-03T13:59:41;94106.19;;;10.82;71.60
40205;BME280;26963;42.666;23.366;2023-04-03T14:07:03;94093.63;;;10.91;73.05
40205;BME280;26963;42.666;23.366;2023-04-03T14:09:28;94012.56;;;10.38;72.86
40205;BME280;26963;42.666;23.366;2023-04-03T14:12:02;94096.94;;;10.97;73.98
40205;BME280;26963;42.666;23.366;2023-04-03T14:14:32;94067.31;;;10.84;73.48
40205;BME280;26963;42.666;23.366;2023-04-03T14:17:00;94058.19;;;10.85;72.82
40205;BME280;26963;42.666;23.366;2023-04-03T14:19:33;94094.72;;;11.07;72.30
40205;BME280;26963;42.666;23.366;2023-04-03T14:22:10;94014.16;;;10.56;71.87
40205;BME280;26963;42.666;23.366;2023-04-03T14:24:36;94014.44;;;10.64;72.82
40205;BME280;26963;42.666;23.366;2023-04-03T14:27:02;94093.00;;;11.03;71.46
40205;BME280;26963;42.666;23.366;2023-04-03T14:29:30;94081.84;;;11.01;73.00
40205;BME280;26963;42.666;23.366;2023-04-03T14:31:56;94079.28;;;10.96;72.09
40205;BME280;26963;42.666;23.366;2023-04-03T14:34:21;94094.41;;;10.91;72.46
40205;BME280;26963;42.666;23.366;2023-04-03T14:36:47;94092.53;;;10.83;72.44
40205;BME280;26963;42.666;23.366;2023-04-03T14:39:17;94087.63;;;10.76;72.86
40205;BME280;26963;42.666;23.366;2023-04-03T14:41:44;94085.09;;;10.71;73.26
40205;BME280;26963;42.666;23.366;2023-04-03T14:44:10;94086.84;;;10.67;72.06
40205;BME280;26963;42.666;23.366;2023-04-03T14:46:39;94090.75;;;10.52;72.26
40205;BME280;26963;42.666;23.366;2023-04-03T14:49:14;94081.78;;;10.48;73.85
40205;BME280;26963;42.666;23.366;2023-04-03T14:51:40;94077.50;;;10.38;73.59
40205;BME280;26963;42.666;23.366;2023-04-03T14:54:13;94057.63;;;10.22;74.53
40205;BME280;26963;42.666;23.366;2023-04-03T14:56:38;94014.91;;;9.82;74.09
40205;BME280;26963;42.666;23.366;2023-04-03T14:59:08;94053.06;;;10.22;74.56
40205;BME280;26963;42.666;23.366;2023-04-03T15:01:35;94050.56;;;10.17;74.43
40205;BME280;26963;42.666;23.366;2023-04-03T15:04:00;94066.09;;;10.15;74.48
40205;BME280;26963;42.666;23.366;2023-04-03T15:06:26;94062.44;;;10.02;73.82